Time;durP1;ratioP1;P1;durP2;ratioP2;P2;SDS_P1;SDS_P2;PMS_P1;PMS_P2;Temp;Humidity;BMP_temperature;BMP_pressure;BME280_temperature;BME280_humidity;BME280_pressure;Samples;Min_cycle;Max_cycle;Signal;HPM_P1;HPM_P2
2023/01/18 00:00:39;;;;;;;9.95;2.17;;;3.00;99.90;;;;;;4949359;28;20043;-67
2023/01/18 00:03:11;;;;;;;6.55;0.80;;;2.90;99.90;;;;;;4949402;28;20055;-65
2023/01/18 00:05:40;;;;;;;4.93;0.85;;;2.90;99.90;;;;;;4948060;28;20087;-66
2023/01/18 00:08:11;;;;;;;4.82;1.38;;;2.80;99.90;;;;;;4951621;28;20079;-66
2023/01/18 00:10:39;;;;;;;7.10;1.20;;;2.90;99.90;;;;;;4964262;28;20062;-70
2023/01/18 00:13:06;;;;;;;3.55;1.27;;;2.80;99.90;;;;;;4946445;28;20047;-64
2023/01/18 00:15:33;;;;;;;8.57;1.27;;;2.80;99.90;;;;;;4948902;28;20047;-66
2023/01/18 00:18:01;;;;;;;1.38;1.13;;;2.80;99.90;;;;;;4954373;28;20051;-65
2023/01/18 00:20:29;;;;;;;11.93;2.38;;;2.90;99.90;;;;;;4955270;28;20051;-66
2023/01/18 00:22:59;;;;;;;6.15;1.27;;;2.90;99.90;;;;;;4952046;28;20082;-63
2023/01/18 00:25:26;;;;;;;4.57;0.63;;;2.90;99.90;;;;;;4945487;28;20047;-66
2023/01/18 00:27:54;;;;;;;6.22;1.33;;;2.90;99.90;;;;;;4956144;28;20157;-69
2023/01/18 00:30:24;;;;;;;7.35;1.15;;;3.00;99.90;;;;;;4944075;28;20490;-67
2023/01/18 00:32:54;;;;;;;6.47;1.20;;;3.00;99.90;;;;;;4951085;28;20046;-66
2023/01/18 00:35:22;;;;;;;7.72;1.45;;;3.00;99.90;;;;;;4947988;28;20070;-65
2023/01/18 00:37:50;;;;;;;5.85;1.10;;;3.00;99.90;;;;;;4949903;28;20142;-66
2023/01/18 00:40:21;;;;;;;6.53;1.45;;;3.00;99.90;;;;;;4945963;28;20055;-65
2023/01/18 00:45:33;;;;;;;5.50;1.00;;;3.00;99.90;;;;;;4948599;28;20039;-68
2023/01/18 00:48:01;;;;;;;12.02;0.95;;;3.00;99.90;;;;;;4951052;28;20159;-70
2023/01/18 00:50:28;;;;;;;4.63;0.80;;;3.00;99.90;;;;;;4955459;28;20050;-65
2023/01/18 00:52:57;;;;;;;3.03;0.68;;;3.00;99.90;;;;;;4950306;28;20085;-66
2023/01/18 00:55:25;;;;;;;5.13;1.02;;;3.00;99.90;;;;;;4956023;28;20142;-67
2023/01/18 00:57:52;;;;;;;3.40;1.35;;;3.00;99.90;;;;;;4950981;28;20051;-71
2023/01/18 01:00:25;;;;;;;2.28;0.95;;;3.00;99.90;;;;;;4953423;28;20073;-66
2023/01/18 01:02:52;;;;;;;6.60;1.48;;;3.00;99.90;;;;;;4955128;28;20126;-69
2023/01/18 01:08:16;;;;;;;4.47;0.93;;;3.00;99.90;;;;;;4950879;28;20042;-64
2023/01/18 01:10:48;;;;;;;3.75;1.10;;;3.00;99.90;;;;;;4950916;28;20054;-70
2023/01/18 01:27:14;;;;;;;2.75;0.82;;;2.80;99.90;;;;;;4949584;28;20672;-65
2023/01/18 01:29:41;;;;;;;5.53;0.57;;;2.80;99.90;;;;;;4950825;28;20051;-67
2023/01/18 01:32:09;;;;;;;2.45;0.47;;;2.80;99.90;;;;;;4952837;28;20054;-69
2023/01/18 01:34:36;;;;;;;3.05;0.55;;;2.70;99.90;;;;;;4954611;28;20863;-65
2023/01/18 01:37:03;;;;;;;1.63;0.57;;;2.70;99.90;;;;;;4955844;28;20508;-67
2023/01/18 01:39:30;;;;;;;2.65;1.58;;;2.70;99.90;;;;;;4949750;28;20059;-68
2023/01/18 01:41:57;;;;;;;1.17;0.40;;;2.70;99.90;;;;;;4953095;28;20051;-67
2023/01/18 01:44:26;;;;;;;4.05;0.60;;;2.70;99.90;;;;;;4952105;28;20082;-65
2023/01/18 01:46:58;;;;;;;2.72;0.82;;;2.60;99.90;;;;;;4955011;28;20686;-71
2023/01/18 01:49:41;;;;;;;2.50;0.77;;;2.60;99.90;;;;;;4950167;28;20486;-68
2023/01/18 01:52:15;;;;;;;6.47;1.35;;;2.60;99.90;;;;;;4944856;28;20047;-68
2023/01/18 01:55:03;;;;;;;3.15;0.52;;;2.60;99.90;;;;;;4951946;28;20071;-68
2023/01/18 01:57:35;;;;;;;3.17;0.77;;;2.60;99.90;;;;;;4950995;28;20051;-64
2023/01/18 02:00:13;;;;;;;8.82;1.00;;;2.60;99.90;;;;;;4948887;28;20144;-69
2023/01/18 02:02:43;;;;;;;2.10;0.70;;;2.60;99.90;;;;;;4952007;28;20051;-70
2023/01/18 02:05:12;;;;;;;3.85;1.05;;;2.60;99.90;;;;;;4950375;28;20051;-64
2023/01/18 02:07:40;;;;;;;3.55;0.60;;;2.60;99.90;;;;;;4952142;28;20058;-65
2023/01/18 02:10:07;;;;;;;6.57;1.45;;;2.70;99.90;;;;;;4950086;28;20142;-64
2023/01/18 02:12:37;;;;;;;7.82;0.73;;;2.60;99.90;;;;;;4951126;28;20259;-66
2023/01/18 02:15:04;;;;;;;6.13;1.07;;;2.70;99.90;;;;;;4952265;28;20046;-66
2023/01/18 02:17:31;;;;;;;5.00;0.77;;;2.70;99.90;;;;;;4952478;28;20282;-65
2023/01/18 02:20:20;;;;;;;1.35;1.02;;;2.70;99.90;;;;;;4950302;28;20055;-71
2023/01/18 02:22:56;;;;;;;0.82;0.40;;;2.70;99.90;;;;;;4951322;28;20058;-64
2023/01/18 02:25:38;;;;;;;2.80;0.73;;;2.60;99.90;;;;;;4947791;28;20047;-64
2023/01/18 02:28:11;;;;;;;5.90;1.20;;;2.70;99.90;;;;;;4967479;28;20154;-72
2023/01/18 02:30:45;;;;;;;2.03;0.50;;;2.60;99.90;;;;;;4948358;28;20059;-63
2023/01/18 02:33:33;;;;;;;7.45;0.82;;;2.60;99.90;;;;;;4968431;28;20070;-65
2023/01/18 02:36:02;;;;;;;5.45;0.70;;;2.60;99.90;;;;;;4951904;28;20527;-70
2023/01/18 02:38:44;;;;;;;3.72;0.30;;;2.50;99.90;;;;;;4953357;28;20181;-65
2023/01/18 02:41:20;;;;;;;3.38;0.50;;;2.40;99.90;;;;;;4948980;28;20058;-66
2023/01/18 02:46:39;;;;;;;1.42;0.30;;;2.30;99.90;;;;;;4952737;28;20046;-68
2023/01/18 02:49:17;;;;;;;3.95;0.47;;;2.20;99.90;;;;;;4949009;28;20054;-71
2023/01/18 02:51:44;;;;;;;0.77;0.22;;;2.10;99.90;;;;;;4946011;28;20047;-65
2023/01/18 02:54:22;;;;;;;0.57;0.20;;;2.10;99.90;;;;;;4950346;28;20138;-66
2023/01/18 02:56:52;;;;;;;2.83;0.57;;;2.10;99.90;;;;;;4951325;28;20061;-67
2023/01/18 02:59:25;;;;;;;3.63;1.08;;;2.10;99.90;;;;;;4950855;28;20141;-67
2023/01/18 03:01:58;;;;;;;2.00;0.20;;;2.00;99.90;;;;;;4948290;28;20147;-68
2023/01/18 03:04:34;;;;;;;1.08;0.28;;;2.00;99.90;;;;;;4947993;28;20058;-68
2023/01/18 03:07:08;;;;;;;1.73;0.20;;;2.00;99.90;;;;;;4945739;28;20053;-65
2023/01/18 03:09:35;;;;;;;2.08;0.35;;;2.00;99.90;;;;;;4947356;28;20174;-66
2023/01/18 03:12:24;;;;;;;4.03;1.02;;;2.00;99.90;;;;;;4950882;28;20137;-67
2023/01/18 03:15:04;;;;;;;5.25;2.75;;;2.10;99.90;;;;;;4948010;28;20066;-68
2023/01/18 03:17:42;;;;;;;4.50;0.82;;;2.10;99.90;;;;;;4950176;28;20058;-66
2023/01/18 03:20:12;;;;;;;6.30;1.98;;;2.00;99.90;;;;;;4947768;28;20047;-67
2023/01/18 03:25:41;;;;;;;5.32;0.75;;;2.00;99.90;;;;;;4948778;28;20051;-70
2023/01/18 03:33:59;;;;;;;1.42;0.32;;;2.00;99.90;;;;;;4949558;28;20481;-68
2023/01/18 03:36:30;;;;;;;2.67;0.60;;;2.00;99.90;;;;;;4953115;28;20098;-65
2023/01/18 03:39:05;;;;;;;3.95;0.90;;;2.00;99.90;;;;;;4952038;28;20142;-66
2023/01/18 03:41:35;;;;;;;3.70;1.05;;;2.00;99.90;;;;;;4948779;28;20055;-66
2023/01/18 03:44:10;;;;;;;10.00;1.10;;;2.00;99.90;;;;;;4952149;28;20138;-64
2023/01/18 03:46:39;;;;;;;3.70;0.88;;;2.00;99.90;;;;;;4948553;28;20661;-67
2023/01/18 03:49:07;;;;;;;5.00;1.25;;;1.90;99.90;;;;;;4951271;28;20114;-67
2023/01/18 03:51:46;;;;;;;4.00;1.08;;;1.90;99.90;;;;;;4950496;28;20049;-70
2023/01/18 03:54:22;;;;;;;2.67;0.80;;;1.80;99.90;;;;;;4946445;28;20094;-69
2023/01/18 03:56:59;;;;;;;5.75;1.10;;;1.80;99.90;;;;;;4950906;28;20050;-64
2023/01/18 03:59:32;;;;;;;4.45;0.85;;;1.70;99.90;;;;;;4951221;28;20146;-66
2023/01/18 04:01:59;;;;;;;5.25;1.25;;;1.70;99.90;;;;;;4949798;28;20058;-67
2023/01/18 04:04:26;;;;;;;7.80;0.70;;;1.80;99.90;;;;;;4950593;28;20052;-66
2023/01/18 04:06:53;;;;;;;4.95;0.93;;;1.80;99.90;;;;;;4953029;28;20165;-71
2023/01/18 04:09:20;;;;;;;2.72;1.55;;;1.80;99.90;;;;;;4951318;28;20101;-67
2023/01/18 04:11:47;;;;;;;3.60;0.60;;;1.80;99.90;;;;;;4945271;28;20083;-68
2023/01/18 04:14:14;;;;;;;3.65;0.77;;;1.70;99.90;;;;;;4950141;28;20447;-64
2023/01/18 04:16:41;;;;;;;3.30;1.10;;;1.80;99.90;;;;;;4952151;28;20046;-65
2023/01/18 04:19:07;;;;;;;3.65;1.05;;;1.70;99.90;;;;;;4949151;28;20043;-64
2023/01/18 04:21:34;;;;;;;4.03;0.40;;;1.70;99.90;;;;;;4954680;28;20051;-65
2023/01/18 04:24:01;;;;;;;3.58;1.20;;;1.60;99.90;;;;;;4952722;28;20496;-64
2023/01/18 04:26:28;;;;;;;6.82;0.70;;;1.50;99.90;;;;;;4957037;28;20545;-66
2023/01/18 04:28:55;;;;;;;3.03;0.55;;;1.50;99.90;;;;;;4947729;28;20525;-67
2023/01/18 04:31:22;;;;;;;3.78;0.60;;;1.50;99.90;;;;;;4954413;28;20047;-64
2023/01/18 04:33:50;;;;;;;2.60;0.77;;;1.50;99.90;;;;;;4954969;28;20563;-63
2023/01/18 04:36:18;;;;;;;3.42;0.43;;;1.40;99.90;;;;;;4954287;28;20047;-64
2023/01/18 04:38:45;;;;;;;2.28;0.95;;;1.30;99.90;;;;;;4952134;28;20478;-63
2023/01/18 04:41:12;;;;;;;2.67;0.50;;;1.30;99.90;;;;;;4952507;28;20055;-65
2023/01/18 04:43:39;;;;;;;3.78;0.80;;;1.40;99.90;;;;;;4948630;28;20051;-65
2023/01/18 04:46:06;;;;;;;5.05;0.93;;;1.30;99.90;;;;;;4955010;28;20061;-65
2023/01/18 04:48:33;;;;;;;3.78;0.70;;;1.30;99.90;;;;;;4952686;28;20474;-63
2023/01/18 04:50:59;;;;;;;4.15;1.35;;;1.30;99.90;;;;;;4956850;28;20471;-64
2023/01/18 04:53:26;;;;;;;4.13;0.70;;;1.40;99.90;;;;;;4955837;28;20053;-65
2023/01/18 04:55:53;;;;;;;2.70;1.02;;;1.40;99.90;;;;;;4951350;28;20043;-69
2023/01/18 04:58:20;;;;;;;4.10;0.90;;;1.40;99.90;;;;;;4955662;28;20122;-64
2023/01/18 05:00:47;;;;;;;2.30;0.90;;;1.40;99.90;;;;;;4949596;28;20043;-63
2023/01/18 05:03:15;;;;;;;1.58;0.80;;;1.40;99.90;;;;;;4956645;28;20090;-65
2023/01/18 05:05:41;;;;;;;2.28;0.63;;;1.40;99.90;;;;;;4953223;28;20047;-67
2023/01/18 05:08:08;;;;;;;0.88;0.60;;;1.40;99.90;;;;;;4953297;28;20489;-63
2023/01/18 05:10:35;;;;;;;4.47;0.60;;;1.30;99.90;;;;;;4954819;28;20055;-64
2023/01/18 05:13:02;;;;;;;2.80;1.42;;;1.40;99.90;;;;;;4955869;28;20047;-68
2023/01/18 05:15:29;;;;;;;3.58;0.90;;;1.40;99.90;;;;;;4953764;28;20050;-65
2023/01/18 05:17:56;;;;;;;4.47;1.00;;;1.40;99.90;;;;;;4955050;28;20540;-66
2023/01/18 05:20:23;;;;;;;4.25;1.23;;;1.40;99.90;;;;;;4957360;28;20067;-65
2023/01/18 05:22:50;;;;;;;4.18;1.33;;;1.40;99.90;;;;;;4951651;28;20058;-67
2023/01/18 05:25:17;;;;;;;7.82;2.45;;;1.40;99.90;;;;;;4950536;28;20043;-64
2023/01/18 05:27:43;;;;;;;3.70;0.93;;;1.40;99.90;;;;;;4949671;28;20043;-63
2023/01/18 05:30:11;;;;;;;4.00;0.47;;;1.40;99.90;;;;;;4953611;28;20051;-65
2023/01/18 05:32:38;;;;;;;5.97;1.67;;;1.40;99.90;;;;;;4948703;28;20121;-65
2023/01/18 05:35:05;;;;;;;3.25;0.80;;;1.40;99.90;;;;;;4951124;28;20358;-64
2023/01/18 05:37:32;;;;;;;5.50;1.00;;;1.40;99.90;;;;;;4954487;28;20054;-64
2023/01/18 05:40:00;;;;;;;4.68;1.48;;;1.50;99.90;;;;;;4962105;28;20063;-65
2023/01/18 05:42:27;;;;;;;2.80;1.30;;;1.50;99.90;;;;;;4953834;28;20119;-67
2023/01/18 05:44:53;;;;;;;5.05;1.48;;;1.60;99.90;;;;;;4946966;28;20047;-67
2023/01/18 05:47:21;;;;;;;2.10;0.68;;;1.60;99.90;;;;;;4956103;28;20047;-72
2023/01/18 05:49:48;;;;;;;0.80;0.80;;;1.70;99.90;;;;;;4946564;28;20124;-70
2023/01/18 05:52:15;;;;;;;3.28;1.13;;;1.70;99.90;;;;;;4953010;28;20053;-68
2023/01/18 05:54:42;;;;;;;1.45;0.90;;;1.70;99.90;;;;;;4954143;28;20061;-66
2023/01/18 05:57:09;;;;;;;2.20;0.80;;;1.60;99.90;;;;;;4954114;28;20059;-65
2023/01/18 05:59:36;;;;;;;1.48;0.82;;;1.60;99.90;;;;;;4955436;28;20058;-63
2023/01/18 06:02:03;;;;;;;1.75;0.77;;;1.50;99.90;;;;;;4950102;28;20047;-69
2023/01/18 06:04:30;;;;;;;2.55;0.75;;;1.50;99.90;;;;;;4948117;28;20051;-69
2023/01/18 06:06:57;;;;;;;2.67;0.80;;;1.50;99.90;;;;;;4954375;28;20186;-66
2023/01/18 06:09:24;;;;;;;7.13;1.70;;;1.40;99.90;;;;;;4956204;28;20074;-67
2023/01/18 06:11:51;;;;;;;1.45;0.95;;;1.40;99.90;;;;;;4950865;28;20483;-70
2023/01/18 06:14:18;;;;;;;2.25;1.08;;;1.30;99.90;;;;;;4954678;28;20047;-65
2023/01/18 06:16:45;;;;;;;2.85;0.88;;;1.30;99.90;;;;;;4953161;28;20043;-66
2023/01/18 06:19:12;;;;;;;2.78;1.25;;;1.30;99.90;;;;;;4948159;28;20059;-68
2023/01/18 06:21:39;;;;;;;2.40;1.13;;;1.30;99.90;;;;;;4943741;28;20130;-68
2023/01/18 06:24:06;;;;;;;2.45;1.27;;;1.30;99.90;;;;;;4944151;28;20058;-64
2023/01/18 06:26:33;;;;;;;2.05;1.40;;;1.30;99.90;;;;;;4952017;28;20670;-70
2023/01/18 06:29:00;;;;;;;3.65;1.20;;;1.30;99.90;;;;;;4947511;28;20501;-64
2023/01/18 06:31:27;;;;;;;3.15;1.23;;;1.30;99.90;;;;;;4953309;28;20051;-67
2023/01/18 06:33:54;;;;;;;2.90;1.40;;;1.30;99.90;;;;;;4947291;28;20169;-68
2023/01/18 06:36:21;;;;;;;2.20;1.27;;;1.30;99.90;;;;;;4948222;28;20485;-65
2023/01/18 06:38:48;;;;;;;4.75;1.77;;;1.20;99.90;;;;;;4950948;28;20078;-68
2023/01/18 06:41:14;;;;;;;4.28;2.05;;;1.20;99.90;;;;;;4948222;28;20067;-67
2023/01/18 06:43:41;;;;;;;4.43;2.22;;;1.20;99.90;;;;;;4946482;28;20058;-65
2023/01/18 06:46:10;;;;;;;3.10;2.00;;;1.10;99.90;;;;;;4944314;28;20073;-66
2023/01/18 06:48:37;;;;;;;9.70;2.47;;;1.10;99.90;;;;;;4947103;28;20051;-66
2023/01/18 06:51:04;;;;;;;9.02;2.28;;;1.10;99.90;;;;;;4949930;28;20401;-64
2023/01/18 06:53:31;;;;;;;1.90;1.67;;;1.00;99.90;;;;;;4942887;28;20060;-71
2023/01/18 06:56:00;;;;;;;7.85;2.75;;;1.00;99.90;;;;;;4945775;28;20046;-67
2023/01/18 06:58:31;;;;;;;12.13;3.13;;;1.00;99.90;;;;;;4950952;28;20055;-63
2023/01/18 07:00:59;;;;;;;8.30;2.38;;;1.00;99.90;;;;;;4950512;28;20313;-64
2023/01/18 07:03:28;;;;;;;8.93;3.33;;;1.00;99.90;;;;;;4945887;28;20142;-63
2023/01/18 07:05:57;;;;;;;5.55;2.42;;;0.90;99.90;;;;;;4949684;28;20047;-67
2023/01/18 07:08:25;;;;;;;8.50;2.67;;;0.90;99.90;;;;;;4947694;28;20147;-70
2023/01/18 07:10:53;;;;;;;3.67;2.10;;;0.80;99.90;;;;;;4947549;28;20544;-66
2023/01/18 07:13:21;;;;;;;8.27;2.00;;;0.80;99.90;;;;;;4952558;28;20055;-64
2023/01/18 07:15:57;;;;;;;4.13;2.03;;;0.80;99.90;;;;;;4951405;28;20462;-66
2023/01/18 07:18:28;;;;;;;6.93;2.22;;;0.90;99.90;;;;;;4951202;28;20082;-63
2023/01/18 07:21:03;;;;;;;6.05;2.78;;;0.90;99.90;;;;;;4945821;28;20051;-66
2023/01/18 07:23:38;;;;;;;3.13;1.63;;;0.90;99.90;;;;;;4941834;28;20810;-67
2023/01/18 07:26:10;;;;;;;3.95;1.23;;;0.90;99.90;;;;;;4948524;28;20124;-67
2023/01/18 07:28:37;;;;;;;5.10;1.90;;;0.90;99.90;;;;;;4949974;28;20051;-68
2023/01/18 07:31:06;;;;;;;6.32;1.90;;;0.90;99.90;;;;;;4953162;28;20145;-64
2023/01/18 07:33:34;;;;;;;5.57;2.03;;;1.00;99.90;;;;;;4948836;28;20693;-65
2023/01/18 07:36:06;;;;;;;4.22;2.22;;;1.00;99.90;;;;;;4951447;28;20047;-67
2023/01/18 07:38:33;;;;;;;6.55;2.10;;;1.00;99.90;;;;;;4951210;28;20093;-66
2023/01/18 07:41:03;;;;;;;3.20;1.70;;;1.00;99.90;;;;;;4948695;28;20076;-65
2023/01/18 07:43:31;;;;;;;3.63;1.98;;;1.00;99.90;;;;;;4951146;28;20489;-69
2023/01/18 07:45:59;;;;;;;4.90;2.17;;;1.00;99.90;;;;;;4950242;28;20047;-63
2023/01/18 07:48:27;;;;;;;6.57;2.30;;;1.00;99.90;;;;;;4948180;28;20047;-70
2023/01/18 07:50:59;;;;;;;4.63;1.80;;;1.00;99.90;;;;;;4953415;28;20046;-66
2023/01/18 07:53:27;;;;;;;6.03;2.10;;;1.00;99.90;;;;;;4952343;28;20055;-70
2023/01/18 07:55:57;;;;;;;4.68;1.67;;;1.00;99.90;;;;;;4944934;28;20055;-67
2023/01/18 07:58:24;;;;;;;5.68;2.05;;;1.00;99.90;;;;;;4956754;28;20077;-67
2023/01/18 08:00:51;;;;;;;6.25;2.88;;;1.00;99.90;;;;;;4953650;28;20043;-67
2023/01/18 08:03:18;;;;;;;2.15;1.20;;;1.00;99.90;;;;;;4956444;28;20501;-67
2023/01/18 08:05:46;;;;;;;7.53;2.28;;;0.90;99.90;;;;;;4952704;28;20134;-69
2023/01/18 08:08:15;;;;;;;9.43;4.65;;;0.90;99.90;;;;;;4955600;28;20129;-70
2023/01/18 08:10:43;;;;;;;3.15;1.95;;;0.90;99.90;;;;;;4953842;28;20671;-66
2023/01/18 08:13:10;;;;;;;6.07;2.30;;;0.90;99.90;;;;;;4952844;28;20130;-66
2023/01/18 08:15:38;;;;;;;2.45;1.45;;;0.90;99.90;;;;;;4956854;28;20051;-65
2023/01/18 08:18:06;;;;;;;5.57;1.60;;;0.90;99.90;;;;;;4953247;28;20047;-64
2023/01/18 08:20:34;;;;;;;3.05;1.52;;;0.90;99.90;;;;;;4950821;28;20141;-64
2023/01/18 08:23:01;;;;;;;4.50;1.50;;;0.90;99.90;;;;;;4950712;28;20050;-68
2023/01/18 08:25:30;;;;;;;7.95;1.63;;;0.90;99.90;;;;;;4947744;28;20473;-65
2023/01/18 08:27:59;;;;;;;1.75;1.65;;;0.90;99.90;;;;;;4955990;28;20579;-68
2023/01/18 08:30:29;;;;;;;2.20;1.45;;;0.90;99.90;;;;;;4949642;28;20142;-70
2023/01/18 08:32:57;;;;;;;4.50;2.30;;;1.00;99.90;;;;;;4967082;28;20433;-67
2023/01/18 08:35:27;;;;;;;6.43;3.03;;;1.00;99.90;;;;;;4954004;28;20054;-65
2023/01/18 08:37:54;;;;;;;4.63;1.67;;;1.10;99.90;;;;;;4952743;28;20066;-66
2023/01/18 08:40:22;;;;;;;2.40;2.13;;;1.10;99.90;;;;;;4953700;28;20061;-65
2023/01/18 08:42:49;;;;;;;6.22;1.60;;;1.10;99.90;;;;;;4950558;28;20081;-67
2023/01/18 08:45:16;;;;;;;5.03;1.67;;;1.10;99.90;;;;;;4951106;28;20054;-68
2023/01/18 08:47:43;;;;;;;8.93;1.80;;;1.10;99.90;;;;;;4954077;28;20091;-68
2023/01/18 08:50:10;;;;;;;5.13;1.95;;;1.10;99.90;;;;;;4952339;28;20118;-68
2023/01/18 08:52:37;;;;;;;4.38;1.50;;;1.20;99.90;;;;;;4953604;28;20424;-67
2023/01/18 08:55:06;;;;;;;4.53;1.70;;;1.20;99.90;;;;;;4952657;28;20053;-67
2023/01/18 08:57:33;;;;;;;1.90;1.73;;;1.10;99.90;;;;;;4958037;28;20667;-65
2023/01/18 08:59:59;;;;;;;4.32;1.30;;;1.20;99.90;;;;;;4951032;28;20522;-70
2023/01/18 09:02:26;;;;;;;4.22;1.67;;;1.20;99.90;;;;;;4951498;28;20054;-67
2023/01/18 09:04:53;;;;;;;4.95;1.63;;;1.20;99.90;;;;;;4954071;28;20246;-73
2023/01/18 09:07:20;;;;;;;4.05;1.38;;;1.10;99.90;;;;;;4949288;28;20049;-68
2023/01/18 09:09:47;;;;;;;5.05;1.45;;;1.20;99.90;;;;;;4950000;28;20062;-68
2023/01/18 09:12:14;;;;;;;8.55;1.80;;;1.20;99.90;;;;;;4954048;28;20153;-64
2023/01/18 09:14:41;;;;;;;3.50;2.05;;;1.20;99.90;;;;;;4957711;28;20053;-67
2023/01/18 09:17:07;;;;;;;2.03;1.30;;;1.20;99.90;;;;;;4951181;28;20402;-66
2023/01/18 09:19:34;;;;;;;4.03;1.73;;;1.20;99.90;;;;;;4954070;28;20055;-66
2023/01/18 09:22:02;;;;;;;3.30;1.30;;;1.20;99.90;;;;;;4950514;28;20057;-68
2023/01/18 09:24:29;;;;;;;4.20;1.23;;;1.20;99.90;;;;;;4951801;28;20054;-65
2023/01/18 09:26:56;;;;;;;7.40;1.88;;;1.20;99.90;;;;;;4955572;28;20150;-69
2023/01/18 09:29:23;;;;;;;3.15;1.70;;;1.30;99.90;;;;;;4955878;28;20552;-69
2023/01/18 09:31:52;;;;;;;3.05;1.60;;;1.30;99.90;;;;;;4947824;28;20065;-66
2023/01/18 09:34:19;;;;;;;6.97;1.97;;;1.30;99.90;;;;;;4950219;28;20498;-65
2023/01/18 09:36:51;;;;;;;3.42;2.10;;;1.30;99.90;;;;;;4954397;28;20050;-68
2023/01/18 09:39:19;;;;;;;4.63;1.80;;;1.30;99.90;;;;;;4953321;28;20050;-65
2023/01/18 09:41:55;;;;;;;2.13;1.88;;;1.30;99.90;;;;;;4954231;28;20051;-67
2023/01/18 09:44:34;;;;;;;4.28;1.92;;;1.30;99.90;;;;;;4951137;28;20501;-67
2023/01/18 09:47:21;;;;;;;3.60;1.57;;;1.40;99.90;;;;;;4948056;28;20191;-70
2023/01/18 09:49:53;;;;;;;4.88;1.52;;;1.40;99.90;;;;;;4947969;28;20710;-63
2023/01/18 09:52:55;;;;;;;6.85;2.38;;;1.40;99.90;;;;;;4947484;28;20519;-66
2023/01/18 09:55:49;;;;;;;4.00;1.58;;;1.40;99.90;;;;;;4953503;28;20059;-67
2023/01/18 09:58:51;;;;;;;2.83;1.90;;;1.40;99.90;;;;;;4949846;28;20141;-64
2023/01/18 10:01:22;;;;;;;3.78;1.75;;;1.40;99.90;;;;;;4954301;28;20058;-68
2023/01/18 10:04:00;;;;;;;2.05;1.40;;;1.50;99.90;;;;;;4945602;28;20134;-68
2023/01/18 10:06:33;;;;;;;2.40;1.67;;;1.60;99.90;;;;;;4952253;28;20047;-65
2023/01/18 10:09:14;;;;;;;7.18;1.90;;;1.60;99.90;;;;;;4950470;28;20457;-64
2023/01/18 10:12:11;;;;;;;7.00;1.77;;;1.60;99.90;;;;;;4953387;28;20051;-65
2023/01/18 10:14:47;;;;;;;5.30;2.03;;;1.60;99.90;;;;;;4949601;28;20082;-66
2023/01/18 10:17:20;;;;;;;2.88;1.55;;;1.70;99.90;;;;;;4952684;28;20402;-65
2023/01/18 10:19:47;;;;;;;8.80;1.58;;;1.70;99.90;;;;;;4945058;28;20486;-64
2023/01/18 10:22:32;;;;;;;4.00;2.40;;;1.70;99.90;;;;;;4948367;28;20058;-66
2023/01/18 10:25:03;;;;;;;2.53;2.00;;;1.70;99.90;;;;;;4948693;28;20053;-66
2023/01/18 10:27:49;;;;;;;7.90;2.30;;;1.70;99.90;;;;;;4949846;28;20062;-64
2023/01/18 10:30:38;;;;;;;5.53;2.75;;;1.80;99.90;;;;;;4944469;28;20043;-66
2023/01/18 10:33:22;;;;;;;6.55;2.47;;;1.80;99.90;;;;;;4952303;28;20051;-65
2023/01/18 10:35:54;;;;;;;5.55;2.70;;;1.90;99.90;;;;;;4947942;28;20050;-66
2023/01/18 10:38:25;;;;;;;6.57;3.47;;;2.00;99.90;;;;;;4949607;28;20137;-67
2023/01/18 10:40:57;;;;;;;5.75;2.90;;;2.00;99.90;;;;;;4946754;28;20173;-66
2023/01/18 10:43:27;;;;;;;8.35;3.55;;;2.10;99.90;;;;;;4949464;28;20070;-65
2023/01/18 10:45:55;;;;;;;5.95;4.80;;;2.20;99.90;;;;;;4951215;28;20055;-71
2023/01/18 10:48:33;;;;;;;8.32;3.45;;;2.20;99.90;;;;;;4950466;28;20055;-67
2023/01/18 10:51:04;;;;;;;6.90;3.60;;;2.30;99.90;;;;;;4951236;28;20055;-71
2023/01/18 10:53:38;;;;;;;8.52;3.22;;;2.30;99.90;;;;;;4949739;28;20095;-68
2023/01/18 10:56:08;;;;;;;4.32;3.13;;;2.40;99.90;;;;;;4949003;28;20616;-67
2023/01/18 10:58:49;;;;;;;5.07;2.63;;;2.50;99.90;;;;;;4952239;28;20054;-67
2023/01/18 11:01:23;;;;;;;6.35;3.13;;;2.60;99.90;;;;;;4946508;28;20055;-68
2023/01/18 11:03:53;;;;;;;10.05;3.67;;;2.60;99.90;;;;;;4949630;28;20047;-68
2023/01/18 11:06:21;;;;;;;9.75;4.10;;;2.60;99.90;;;;;;4940280;28;20070;-65
2023/01/18 11:08:49;;;;;;;8.43;3.13;;;2.70;99.90;;;;;;4948657;28;20536;-67
2023/01/18 11:14:28;;;;;;;7.35;3.15;;;2.70;99.90;;;;;;4948038;28;20137;-70
2023/01/18 11:17:09;;;;;;;9.02;2.40;;;2.70;99.90;;;;;;4947619;28;20365;-67
2023/01/18 11:19:37;;;;;;;8.25;3.17;;;2.80;99.90;;;;;;4948905;28;20073;-67
2023/01/18 11:22:11;;;;;;;9.13;3.13;;;2.70;99.90;;;;;;4945177;28;20126;-65
2023/01/18 11:24:38;;;;;;;8.07;2.30;;;2.80;99.90;;;;;;4942422;28;20137;-70
2023/01/18 11:27:19;;;;;;;7.90;3.88;;;2.80;99.90;;;;;;4953953;28;20075;-74
2023/01/18 11:29:46;;;;;;;6.95;3.10;;;2.70;99.90;;;;;;4962322;28;20480;-70
2023/01/18 11:32:29;;;;;;;8.27;3.35;;;2.70;99.90;;;;;;4950390;28;20043;-67
2023/01/18 11:34:58;;;;;;;8.15;3.17;;;2.70;99.90;;;;;;4950292;28;20519;-68
2023/01/18 11:37:25;;;;;;;5.47;2.97;;;2.70;99.90;;;;;;4941682;28;20114;-66
2023/01/18 11:39:52;;;;;;;7.35;3.47;;;2.70;99.90;;;;;;4955750;28;20052;-71
2023/01/18 11:42:33;;;;;;;6.57;3.63;;;2.70;99.90;;;;;;4950741;28;20043;-71
2023/01/18 11:45:39;;;;;;;5.90;3.28;;;2.60;99.90;;;;;;4953179;28;20082;-72
2023/01/18 11:48:35;;;;;;;6.00;2.50;;;2.60;99.90;;;;;;4890745;29;20525;-73
2023/01/18 11:51:33;;;;;;;8.90;3.95;;;2.70;99.90;;;;;;4940848;28;20094;-70
2023/01/18 11:54:25;;;;;;;6.70;3.25;;;2.70;99.90;;;;;;4944535;28;20055;-66
2023/01/18 11:56:55;;;;;;;10.32;3.28;;;2.80;99.90;;;;;;4940901;28;20293;-72
2023/01/18 11:59:24;;;;;;;5.60;2.78;;;2.90;99.90;;;;;;4946114;28;20805;-66
2023/01/18 12:02:00;;;;;;;5.35;3.00;;;2.90;99.90;;;;;;4954285;28;20130;-69
2023/01/18 12:04:39;;;;;;;8.23;3.05;;;2.90;99.90;;;;;;4954953;28;20067;-66
2023/01/18 12:07:32;;;;;;;7.10;3.45;;;2.90;99.90;;;;;;4943886;28;20083;-66
2023/01/18 12:10:07;;;;;;;5.35;2.63;;;2.90;99.90;;;;;;4950856;28;20146;-69
2023/01/18 12:13:01;;;;;;;6.97;3.10;;;2.90;99.90;;;;;;4952190;28;20065;-66
2023/01/18 12:15:48;;;;;;;5.38;2.78;;;2.90;99.90;;;;;;4945412;28;20429;-70
2023/01/18 12:19:09;;;;;;;7.63;2.92;;;2.90;99.90;;;;;;4943709;28;20047;-67
2023/01/18 12:22:03;;;;;;;6.93;2.70;;;2.90;99.90;;;;;;4924322;28;20070;-72
2023/01/18 12:24:29;;;;;;;9.50;3.60;;;2.90;99.90;;;;;;4952994;28;20138;-67
2023/01/18 12:27:01;;;;;;;7.07;2.67;;;3.00;99.90;;;;;;4954238;28;20050;-73
2023/01/18 12:29:57;;;;;;;9.88;2.67;;;3.00;99.90;;;;;;4946308;28;20055;-65
2023/01/18 12:32:53;;;;;;;4.80;2.45;;;3.00;99.90;;;;;;4954430;28;20109;-65
2023/01/18 12:35:50;;;;;;;4.60;2.95;;;3.00;99.90;;;;;;4951452;28;20078;-67
2023/01/18 12:38:27;;;;;;;5.03;2.38;;;3.00;99.90;;;;;;4946916;28;20106;-68
2023/01/18 12:41:31;;;;;;;5.43;2.50;;;3.10;99.90;;;;;;4951161;28;20477;-67
2023/01/18 12:44:15;;;;;;;3.17;2.10;;;3.10;99.90;;;;;;4938623;28;23348;-68
2023/01/18 12:47:06;;;;;;;4.03;2.20;;;3.10;99.90;;;;;;4952301;28;20036;-65
2023/01/18 12:49:44;;;;;;;2.50;1.85;;;3.20;99.90;;;;;;4949782;28;20074;-67
2023/01/18 12:52:13;;;;;;;11.50;3.33;;;3.20;99.90;;;;;;4949433;28;20121;-70
2023/01/18 12:54:49;;;;;;;5.55;2.08;;;3.20;99.90;;;;;;4952784;28;20051;-65
2023/01/18 12:57:18;;;;;;;4.40;1.95;;;3.20;99.90;;;;;;4953786;28;20055;-65
2023/01/18 13:00:31;;;;;;;7.22;3.15;;;3.20;99.90;;;;;;4955512;28;20063;-70
2023/01/18 13:02:58;;;;;;;5.35;1.75;;;3.10;99.90;;;;;;4934319;28;20051;-68
2023/01/18 13:05:51;;;;;;;3.28;1.92;;;3.10;99.90;;;;;;4958955;28;20074;-65
2023/01/18 13:08:52;;;;;;;2.65;1.45;;;3.00;99.90;;;;;;4947582;28;20592;-66
2023/01/18 13:11:34;;;;;;;5.60;2.22;;;3.00;99.90;;;;;;4955845;28;20061;-66
2023/01/18 13:14:16;;;;;;;9.27;2.92;;;3.00;99.90;;;;;;4955600;28;20047;-66
2023/01/18 13:16:54;;;;;;;7.13;2.58;;;3.00;99.90;;;;;;4956912;28;20375;-67
2023/01/18 13:19:28;;;;;;;4.00;1.92;;;3.00;99.90;;;;;;4952272;28;20046;-65
2023/01/18 13:22:25;;;;;;;5.95;1.80;;;2.90;99.90;;;;;;4953178;28;20061;-70
2023/01/18 13:25:29;;;;;;;4.85;2.60;;;2.90;99.90;;;;;;4949580;28;20133;-67
2023/01/18 13:28:13;;;;;;;6.80;2.15;;;2.90;99.90;;;;;;4954129;28;20089;-73
2023/01/18 13:30:55;;;;;;;4.88;2.40;;;2.80;99.90;;;;;;4949041;28;20105;-69
2023/01/18 13:33:25;;;;;;;5.75;2.25;;;2.70;99.90;;;;;;4959603;28;20430;-68
2023/01/18 13:36:01;;;;;;;6.97;2.67;;;2.70;99.90;;;;;;4950912;28;20086;-68
2023/01/18 13:38:29;;;;;;;9.75;2.83;;;2.60;99.90;;;;;;4955559;28;20169;-65
2023/01/18 13:41:11;;;;;;;4.60;2.15;;;2.60;99.90;;;;;;4956756;28;20047;-65
2023/01/18 13:43:44;;;;;;;5.22;2.47;;;2.50;99.90;;;;;;4953389;28;20051;-68
2023/01/18 13:46:17;;;;;;;9.02;2.38;;;2.50;99.90;;;;;;4951434;28;20391;-67
2023/01/18 13:48:49;;;;;;;6.32;2.80;;;2.50;99.90;;;;;;4945556;28;20095;-65
2023/01/18 13:51:41;;;;;;;8.48;3.35;;;2.50;99.90;;;;;;4954138;28;20257;-67
2023/01/18 13:54:28;;;;;;;3.70;2.47;;;2.50;99.90;;;;;;4956300;28;20134;-67
2023/01/18 13:57:04;;;;;;;7.63;2.78;;;2.50;99.90;;;;;;4947534;28;20077;-66
2023/01/18 13:59:44;;;;;;;4.57;2.28;;;2.40;99.90;;;;;;4948372;28;20062;-66